West Rushville, OH (43163)

6:22 PM EDT on August 27, 2016 (GMT -0400)
Fairfield County Weather | | Change Station
Active Advisory: Special Statement

Elev 958 ft 39.75 °N, 82.57 °W | Updated 7 seconds ago

Scattered Clouds
Scattered Clouds
77.7 °F
Feels Like 80 °F
N
8.1
Wind Variable Wind from North
Gusts 0.0 mph

Today
High -- | Low -- °F
--% Chance of Precip.
Yesterday
High -- | Low -- °F
Precip. -- in
Pressure 30.12 in
Visibility 10.0 miles
Clouds Few 4900 ft
Few 8000 ft
Scattered Clouds 12000 ft
Heat Index 80 °F
Dew Point 68 °F
Humidity 73%
Rainfall 0.00 in
Snow Depth Not available.
6:53 AM 8:07 PM
Waning Crescent, 21% visible
METAR KLHQ 272153Z AUTO 35008G16KT 10SM FEW049 FEW080 SCT120 24/21 A3014 RMK AO2 PK WND 26032/2112 LTG DSNT N SLP198 T02440206
Pressure 30.12 in
Visibility 10.0 miles
Clouds Few 4900 ft
Few 8000 ft
Scattered Clouds 12000 ft
Heat Index 80 °F
Dew Point 68 °F
Humidity 73%
Rainfall 0.00 in
Snow Depth Not available.
6:53 AM 8:07 PM
Waning Crescent, 21% visible
METAR KLHQ 272153Z AUTO 35008G16KT 10SM FEW049 FEW080 SCT120 24/21 A3014 RMK AO2 PK WND 26032/2112 LTG DSNT N SLP198 T02440206

10-Day Weather Forecast

Almanac

Astronomy

Aug. 27, 2016 Rise Set
Actual Time
Civil Twilight
Nautical Twilight
Astronomical Twilight
Moon
Length of Visible Light
Length of Day
Tomorrow will be .
, % of the Moon is Illuminated

Today's Extremes

State Highs State Lows

Community

WunderPhotos

Upload Photos

1,935,455 photos uploaded!

WunderBlog® & News

Nearby

Air Quality

  Air Quality AQ Index Pollutant
Not available.

Snow Depth

Station Depth Elevation

Earthquake Activity

City Distance Mag. Time & Date
Minimum magnitude displayed is 2.5.

Coastal Water Temperatures

Place Temperature

Stations

Nearby Weather Stations

Station Location Temp. Windchill Dew Point Humidity Wind Precip. Elev Updated Type
                   

Watches & Warnings

Special Statement
Issued: 10:04 AM EDT Aug. 27, 2016 – National Weather Service

... Hot and humid conditions expected this afternoon...

High temperatures in the lower to middle 90s will combine with
high humidity to produce heat indices near 100 degrees this
afternoon into early evening... especially in urban areas.

If possible... spend more time in air conditioned or well
ventilated places this afternoon. If you will be outside... wear
light weight and loose fitting clothing and drink plenty of water.



1004 am EDT Sat Aug 27 2016

... Hot and humid conditions expected this afternoon...

High temperatures in the lower to middle 90s will combine with
high humidity to produce heat indices near 100 degrees this
afternoon into early evening... especially in urban areas.

If possible... spend more time in air conditioned or well
ventilated places this afternoon. If you will be outside... wear
light weight and loose fitting clothing and drink plenty of water.